»·PEaware :: ASA625 KRNO-KPDX

ASA625 :: KRNO-KPDX

FLIGHT INFORMATION

Flight Status: Arrived
Operator:
Alaska Airlines
More flights by this operator :: More flights under this callsign
Pilot: Pratham R. (19019)
Aircraft: AIRBUS A320
(A320)
More flights by this aircraft type
Origin: KRNO Reno/Tahoe Intl
United States
Destination: KPDX Portland Intl
United States
More flights between these airports :: More routes between these airports
Route: ZEFFR6 BLKJK WNDEL SOERN TMBRS2
File this flight plan on PilotEdge
Remarks: RMK / SIMBRIEF
Altitude:
(Current/Filed)
34,000ft
Speed:
(Current/Filed)
460kts
Departed: 02-Sep-19 04:42 PM
Arrived: 02-Sep-19 05:49 PM
Distance/Time
Traveled:
386nm/1:07
Distance/Time
To Go:
Arrived

Flight Plot

Page will automatically refresh every two minutes.

Flight plan parsing failed; only flown route is shown


Map Options




Map Legend


Flown Route
Filed Route
Departure Airport
Arrival Airport
Navaid (VOR, NDB)
Fix

Horizontal Profiles

Position Reports

Time Latitude Longitude Heading Altitude Ground
Speed
02-Sep-19 16:04 39.503033 -119.773600 180 4415ft 0kts
02-Sep-19 16:05 39.503033 -119.773600 180 4415ft 0kts
02-Sep-19 16:06 39.503033 -119.773600 180 4415ft 0kts
02-Sep-19 16:07 39.503033 -119.773600 180 4415ft 0kts
02-Sep-19 16:08 39.503033 -119.773600 180 4415ft 0kts
02-Sep-19 16:09 39.503033 -119.773600 180 4415ft 0kts
02-Sep-19 16:10 39.503033 -119.773600 180 4415ft 0kts
02-Sep-19 16:11 39.503033 -119.773600 180 4415ft 0kts
02-Sep-19 16:12 39.503033 -119.773600 180 4415ft 0kts
02-Sep-19 16:13 39.503033 -119.773600 180 4415ft 0kts
02-Sep-19 16:14 39.503033 -119.773600 180 4415ft 0kts
02-Sep-19 16:15 39.503033 -119.773600 180 4415ft 0kts
02-Sep-19 16:16 39.503033 -119.773600 180 4415ft 0kts
02-Sep-19 16:17 39.503033 -119.773600 180 4415ft 0kts
02-Sep-19 16:18 39.503033 -119.773600 180 4415ft 0kts
02-Sep-19 16:19 39.503033 -119.773600 180 4415ft 0kts
02-Sep-19 16:20 39.503033 -119.773600 180 4415ft 0kts
02-Sep-19 16:21 39.503033 -119.773600 180 4415ft 0kts
02-Sep-19 16:22 39.503033 -119.773600 180 4415ft 0kts
02-Sep-19 16:23 39.503033 -119.773600 180 4415ft 0kts
02-Sep-19 16:24 39.503033 -119.773600 180 4415ft 0kts
02-Sep-19 16:25 39.503033 -119.773600 180 4415ft 0kts
02-Sep-19 16:26 39.503033 -119.773600 180 4415ft 0kts
02-Sep-19 16:27 39.503033 -119.773600 180 4415ft 0kts
02-Sep-19 16:28 39.503363 -119.773599 180 4415ft 2kts
02-Sep-19 16:29 39.503740 -119.773838 84 4416ft 1kts
02-Sep-19 16:31 39.503735 -119.773906 88 4415ft 0kts
02-Sep-19 16:32 39.503735 -119.773906 88 4415ft 0kts
02-Sep-19 16:33 39.503735 -119.773906 88 4415ft 0kts
02-Sep-19 16:34 39.503735 -119.773355 90 4415ft 6kts
02-Sep-19 16:35 39.503960 -119.771582 25 4412ft 8kts
02-Sep-19 16:36 39.506674 -119.771482 359 4415ft 10kts
02-Sep-19 16:37 39.509827 -119.771485 0 4415ft 7kts
02-Sep-19 16:38 39.510615 -119.771476 359 4417ft 3kts
02-Sep-19 16:39 39.513418 -119.771469 3 4422ft 6kts
02-Sep-19 16:40 39.513731 -119.770323 90 4420ft 3kts
02-Sep-19 16:41 39.512708 -119.769222 181 4418ft 18kts
02-Sep-19 16:42 39.476150 -119.767750 182 5876ft 175kts
02-Sep-19 16:43 39.421772 -119.769049 183 8082ft 237kts
02-Sep-19 16:44 39.347080 -119.769058 181 10439ft 291kts
02-Sep-19 16:45 39.288442 -119.698825 120 13667ft 323kts
02-Sep-19 16:46 39.310736 -119.585684 54 15795ft 380kts
02-Sep-19 16:47 39.382389 -119.474200 41 17556ft 416kts
02-Sep-19 16:48 39.472678 -119.378055 17 19706ft 428kts
02-Sep-19 16:49 39.578695 -119.416963 314 21613ft 415kts
02-Sep-19 16:49 39.650658 -119.496445 314 23181ft 424kts
02-Sep-19 16:50 39.742121 -119.596321 314 25000ft 435kts
02-Sep-19 16:52 39.851631 -119.716079 314 26957ft 447kts
02-Sep-19 16:53 39.947817 -119.821673 314 28454ft 457kts
02-Sep-19 16:53 40.029361 -119.911507 314 29590ft 464kts
02-Sep-19 16:54 40.128826 -120.021477 314 30808ft 472kts
02-Sep-19 16:55 40.228677 -120.132316 313 32355ft 468kts
02-Sep-19 16:57 40.343925 -120.260812 313 33964ft 464kts
02-Sep-19 16:57 40.434158 -120.339283 331 34149ft 475kts
02-Sep-19 16:58 40.555720 -120.407753 331 34150ft 476kts
02-Sep-19 16:59 40.677508 -120.476803 331 34150ft 477kts
02-Sep-19 17:00 40.799226 -120.546072 331 34151ft 477kts
02-Sep-19 17:01 40.920928 -120.615612 331 34138ft 477kts
02-Sep-19 17:02 41.041640 -120.684860 330 34136ft 477kts
02-Sep-19 17:03 41.159693 -120.752852 329 34138ft 476kts
02-Sep-19 17:04 41.280858 -120.822919 329 34122ft 475kts
02-Sep-19 17:05 41.402106 -120.893317 329 34119ft 475kts
02-Sep-19 17:06 41.522736 -120.963642 329 34125ft 475kts
02-Sep-19 17:07 41.643825 -121.034523 329 34141ft 475kts
02-Sep-19 17:08 41.764429 -121.105414 330 34145ft 473kts
02-Sep-19 17:09 41.884106 -121.176049 330 34137ft 470kts
02-Sep-19 17:10 42.003589 -121.246861 330 34122ft 469kts
02-Sep-19 17:11 42.121884 -121.317252 330 34113ft 468kts
02-Sep-19 17:12 42.240545 -121.388156 330 34114ft 467kts
02-Sep-19 17:13 42.358983 -121.459216 330 34119ft 468kts
02-Sep-19 17:14 42.478256 -121.531075 330 34114ft 469kts
02-Sep-19 17:15 42.597267 -121.603078 330 34131ft 469kts
02-Sep-19 17:16 42.715828 -121.675112 330 34135ft 470kts
02-Sep-19 17:17 42.835190 -121.747936 330 34142ft 470kts
02-Sep-19 17:18 42.954072 -121.820774 329 34132ft 469kts
02-Sep-19 17:19 43.069241 -121.901630 324 34129ft 464kts
02-Sep-19 17:20 43.180211 -121.987659 324 34086ft 463kts
02-Sep-19 17:21 43.291912 -122.074645 324 34034ft 462kts
02-Sep-19 17:22 43.403481 -122.161899 324 34038ft 462kts
02-Sep-19 17:23 43.514839 -122.249346 324 34063ft 462kts
02-Sep-19 17:24 43.626257 -122.336884 324 34068ft 463kts
02-Sep-19 17:25 43.737849 -122.424962 324 34076ft 463kts
02-Sep-19 17:26 43.847830 -122.511920 326 34077ft 464kts
02-Sep-19 17:27 43.959697 -122.599618 323 32813ft 473kts
02-Sep-19 17:28 44.073480 -122.691677 324 28318ft 475kts
02-Sep-19 17:29 44.191263 -122.748860 359 25716ft 473kts
02-Sep-19 17:30 44.320194 -122.736443 1 23181ft 463kts
02-Sep-19 17:31 44.446187 -122.724046 2 20641ft 452kts
02-Sep-19 17:32 44.567771 -122.712005 2 18862ft 410kts
02-Sep-19 17:33 44.676086 -122.701230 2 17122ft 384kts
02-Sep-19 17:34 44.780431 -122.690684 3 14988ft 369kts
02-Sep-19 17:35 44.881738 -122.680465 3 13093ft 359kts
02-Sep-19 17:36 44.978489 -122.670734 3 11879ft 330kts
02-Sep-19 17:37 45.067553 -122.661702 1 10206ft 312kts
02-Sep-19 17:38 45.152158 -122.653061 0 8753ft 303kts
02-Sep-19 17:39 45.234142 -122.644682 0 7368ft 291kts
02-Sep-19 17:40 45.304421 -122.593612 29 5895ft 275kts
02-Sep-19 17:41 45.364800 -122.539328 29 4537ft 254kts
02-Sep-19 17:42 45.419369 -122.488863 33 3378ft 228kts
02-Sep-19 17:43 45.470026 -122.439742 28 2172ft 221kts
02-Sep-19 17:44 45.522177 -122.451976 302 1497ft 198kts
02-Sep-19 17:45 45.547108 -122.509092 305 1269ft 160kts
02-Sep-19 17:46 45.568307 -122.553949 299 586ft 134kts
02-Sep-19 17:47 45.585331 -122.596242 298 38ft 89kts
02-Sep-19 17:48 45.589665 -122.604312 41 38ft 11kts
02-Sep-19 17:49 45.589786 -122.601160 80 38ft 8kts
02-Sep-19 17:50 45.589865 -122.600075 84 38ft 0kts
02-Sep-19 17:51 45.589868 -122.600032 84 38ft 0kts
02-Sep-19 17:52 45.589868 -122.600032 84 38ft 0kts
02-Sep-19 17:53 45.589868 -122.600032 84 38ft 0kts
02-Sep-19 17:54 45.589868 -122.600032 84 38ft 0kts
02-Sep-19 17:55 45.589868 -122.600032 84 38ft 0kts
02-Sep-19 17:56 45.589868 -122.600032 84 38ft 0kts
02-Sep-19 17:57 45.589868 -122.600032 84 38ft 0kts
02-Sep-19 17:58 45.589868 -122.600032 84 38ft 0kts

Navigation Log

Ident Type
Flight plan parsing failed, navigation log unavailable